Wagner, Montana
Current Conditions -  °F | °C
As of 11:53 AM on Thursday 30 Oct 2014 (Local Time) from KGGW Reporting Station
Overcast Overcast  
Wind Chill: 29°   Ceiling: 1200
Heat Index: 37°   Visibility: 10mi
Dew Point: 30°   Wind: 12mph
Humidity: 76%   Direction: 80°E
Pressure: 30.4"   Gusts: NA
Location:  48.3131°N, 107.89°W
Report Text: KGGW 301753Z AUTO 08010KT 10SM OVC012 03/M01 A3040 RMK AO2 SLP320 T00281011 10028 20011 51014
Loading
Personal Weather Stations






























Interactive Weather Map
Tropical Storm Tracking
New forecast layout! Learn more

10-Day Weather Forecast

Advertisements
Track Severe Weather on mobile